Terminal Aerodrome Forecast
Issued by NWS

Home | Current Version | Previous Version | Text Only | Print | Product List | Glossary Off
Versions: 1 2 3 4 5 6 7 8 9 10 11 12 13 14 15 16 17 18 19 20 21 22 23 24 25 26 27 28 29 30 31

095
FTUS43 KLOT 281356 AAB
TAFMDW
TAF AMD
KMDW 281356Z 2814/2912 02012KT P6SM BKN012 OVC025
     FM281500 02012KT P6SM OVC008
     FM282200 03010KT P6SM SCT015 BKN025
     FM290000 04007KT P6SM FEW009 SCT030 BKN200=

USA.gov is the U.S. government's official web portal to all federal, state and local government web resources and services.